createdAt,value
2022-10-17T00:01:48.120Z,7.63
2022-10-17T00:04:15.372Z,7.05
2022-10-17T00:06:42.731Z,10.85
2022-10-17T00:09:10.004Z,7.20
2022-10-17T00:11:37.270Z,14.65
2022-10-17T00:14:04.468Z,2.92
2022-10-17T00:16:33.891Z,19.50
2022-10-17T00:19:01.251Z,18.90
2022-10-17T00:21:28.551Z,27.63
2022-10-17T00:23:56.163Z,21.92
2022-10-17T00:26:23.500Z,19.05
2022-10-17T00:28:51.361Z,22.55
2022-10-17T00:31:20.301Z,67.45
2022-10-17T00:33:47.639Z,20.80
2022-10-17T00:36:34.918Z,20.50
2022-10-17T00:39:02.611Z,11.10
2022-10-17T00:41:31.423Z,20.60
2022-10-17T00:43:58.643Z,27.60
2022-10-17T00:46:27.787Z,39.45
2022-10-17T00:48:55.930Z,25.45
2022-10-17T00:51:32.867Z,26.38
2022-10-17T00:54:00.637Z,18.58
2022-10-17T00:56:28.327Z,40.13
2022-10-17T00:58:55.778Z,37.13
2022-10-17T01:01:23.109Z,32.80
2022-10-17T01:03:53.302Z,21.90
2022-10-17T01:06:20.551Z,14.13
2022-10-17T01:08:47.835Z,31.60
2022-10-17T01:11:15.129Z,21.60
2022-10-17T01:13:49.335Z,36.38
2022-10-17T01:16:23.332Z,20.55
2022-10-17T01:19:08.536Z,30.02
2022-10-17T01:21:45.315Z,20.63
2022-10-17T01:24:13.501Z,22.58
2022-10-17T01:26:59.576Z,12.82
2022-10-17T01:29:30.537Z,10.40
2022-10-17T01:32:00.894Z,19.97
2022-10-17T01:34:40.930Z,14.23
2022-10-17T01:37:28.435Z,15.90
2022-10-17T01:39:56.239Z,11.85
2022-10-17T01:42:30.204Z,9.68
2022-10-17T01:45:03.748Z,7.78
2022-10-17T01:47:31.965Z,16.20
2022-10-17T01:50:27.996Z,10.23
2022-10-17T01:53:16.924Z,2.85
2022-10-17T01:55:46.346Z,4.50
2022-10-17T01:58:25.697Z,7.75
2022-10-17T02:00:54.205Z,2.45
2022-10-17T02:03:21.909Z,6.90
2022-10-17T02:05:49.478Z,5.97
2022-10-17T02:08:25.766Z,4.93
2022-10-17T02:10:58.986Z,5.80
2022-10-17T02:13:30.568Z,3.83
2022-10-17T02:16:14.049Z,7.20
2022-10-17T02:18:59.454Z,3.15
2022-10-17T02:21:43.765Z,3.88
2022-10-17T02:24:29.535Z,9.23
2022-10-17T02:27:17.060Z,3.17
2022-10-17T02:29:49.376Z,5.47
2022-10-17T02:32:27.426Z,3.33
2022-10-17T02:34:56.993Z,9.15
2022-10-17T02:37:28.269Z,5.32
2022-10-17T02:39:57.516Z,5.00
2022-10-17T02:42:25.207Z,5.50
2022-10-17T02:44:53.279Z,13.10
2022-10-17T02:47:28.131Z,8.50
2022-10-17T02:49:56.549Z,2.80
2022-10-17T02:52:33.182Z,6.70
2022-10-17T02:55:10.934Z,8.88
2022-10-17T02:57:43.047Z,13.95
2022-10-17T03:00:11.669Z,6.75
2022-10-17T03:02:40.031Z,4.43
2022-10-17T03:05:08.900Z,5.43
2022-10-17T03:07:38.310Z,14.00
2022-10-17T03:10:06.029Z,3.67
2022-10-17T03:12:33.223Z,11.13
2022-10-17T03:15:00.569Z,6.70
2022-10-17T03:17:28.059Z,18.70
2022-10-17T03:19:55.311Z,10.73
2022-10-17T03:22:22.547Z,12.85
2022-10-17T03:24:57.166Z,6.97
2022-10-17T03:27:24.588Z,8.90
2022-10-17T03:29:51.821Z,15.25
2022-10-17T03:32:19.159Z,8.05
2022-10-17T03:34:46.522Z,20.25
2022-10-17T03:37:13.959Z,12.35
2022-10-17T03:39:42.376Z,8.75
2022-10-17T03:42:09.647Z,21.00
2022-10-17T03:44:37.041Z,21.98
2022-10-17T03:47:04.961Z,9.18
2022-10-17T03:49:32.376Z,16.52
2022-10-17T03:51:59.558Z,3.15
2022-10-17T03:54:28.472Z,7.93
2022-10-17T03:59:28.081Z,15.68
2022-10-17T04:02:02.623Z,8.30
2022-10-17T04:04:29.983Z,14.48
2022-10-17T04:06:58.027Z,4.40
2022-10-17T04:09:25.926Z,13.63
2022-10-17T04:12:02.097Z,6.85
2022-10-17T04:14:31.331Z,4.63
2022-10-17T04:16:58.927Z,3.30
2022-10-17T04:19:27.396Z,4.15
2022-10-17T04:21:55.008Z,7.97
2022-10-17T04:24:22.613Z,10.35
2022-10-17T04:27:20.067Z,15.38
2022-10-17T04:29:47.943Z,2.80
2022-10-17T04:32:18.534Z,9.18
2022-10-17T04:34:50.247Z,3.67
2022-10-17T04:37:19.648Z,8.57
2022-10-17T04:39:48.793Z,7.05
2022-10-17T04:42:16.008Z,2.15
2022-10-17T04:44:43.548Z,8.63
2022-10-17T04:47:11.028Z,4.90
2022-10-17T04:49:39.413Z,13.73
2022-10-17T04:52:10.178Z,7.57
2022-10-17T04:54:40.397Z,17.83
2022-10-17T04:57:10.336Z,8.82
2022-10-17T04:59:39.437Z,10.25
2022-10-17T05:02:22.316Z,6.20
2022-10-17T05:04:49.667Z,16.95
2022-10-17T05:07:16.969Z,17.45
2022-10-17T05:09:53.799Z,9.68
2022-10-17T05:12:22.168Z,5.72
2022-10-17T05:14:49.403Z,5.80
2022-10-17T05:17:17.095Z,7.10
2022-10-17T05:19:45.145Z,2.85
2022-10-17T05:22:12.418Z,19.67
2022-10-17T05:24:41.572Z,12.40
2022-10-17T05:27:09.854Z,31.40
2022-10-17T05:29:37.089Z,22.70
2022-10-17T05:32:11.623Z,21.40
2022-10-17T05:34:38.985Z,12.52
2022-10-17T05:37:06.463Z,23.58
2022-10-17T05:39:34.475Z,19.13
2022-10-17T05:42:01.799Z,8.35
2022-10-17T05:44:29.206Z,12.02
2022-10-17T05:46:59.886Z,17.77
2022-10-17T05:49:44.987Z,10.57
2022-10-17T05:52:15.727Z,7.95
2022-10-17T05:55:06.615Z,5.97
2022-10-17T05:57:34.375Z,10.45
2022-10-17T06:00:03.987Z,6.20
2022-10-17T06:05:15.457Z,10.77
2022-10-17T06:07:43.376Z,8.70
2022-10-17T06:10:12.904Z,11.40
2022-10-17T06:12:40.248Z,9.15
2022-10-17T06:15:07.771Z,4.18
2022-10-17T06:17:35.802Z,11.32
2022-10-17T06:20:03.018Z,28.60
2022-10-17T06:22:30.629Z,9.98
2022-10-17T06:24:58.174Z,12.13
2022-10-17T06:27:25.506Z,15.18
2022-10-17T06:29:52.679Z,28.05
2022-10-17T06:32:19.887Z,32.53
2022-10-17T06:34:47.897Z,50.70
2022-10-17T06:37:15.801Z,17.33
2022-10-17T06:39:44.070Z,19.08
2022-10-17T06:42:13.744Z,5.68
2022-10-17T06:45:10.655Z,18.40
2022-10-17T06:47:42.577Z,6.15
2022-10-17T06:50:27.304Z,2.58
2022-10-17T06:53:05.499Z,13.32
2022-10-17T06:55:55.383Z,6.15
2022-10-17T06:58:41.978Z,4.22
2022-10-17T07:01:31.229Z,9.93
2022-10-17T07:04:00.436Z,3.28
2022-10-17T07:06:29.079Z,7.47
2022-10-17T07:09:00.935Z,6.07
2022-10-17T07:11:28.173Z,3.08
2022-10-17T07:13:55.381Z,2.92
2022-10-17T07:16:22.885Z,5.05
2022-10-17T07:19:00.708Z,3.10
2022-10-17T07:21:36.650Z,7.70
2022-10-17T07:24:07.436Z,8.45
2022-10-17T07:26:34.970Z,4.70
2022-10-17T07:29:02.517Z,4.13
2022-10-17T07:31:45.595Z,5.63
2022-10-17T07:34:12.925Z,7.18
2022-10-17T07:36:40.174Z,2.58
2022-10-17T07:39:08.381Z,2.67
2022-10-17T07:41:37.663Z,2.25
2022-10-17T07:44:05.657Z,3.10
2022-10-17T07:46:37.456Z,1.95
2022-10-17T07:49:06.024Z,3.40
2022-10-17T07:51:34.100Z,2.10
2022-10-17T07:54:01.400Z,3.45
2022-10-17T07:56:29.571Z,6.57
2022-10-17T08:01:29.719Z,3.08
2022-10-17T08:03:56.898Z,2.90
2022-10-17T08:06:24.108Z,4.78
2022-10-17T08:08:51.315Z,5.38
2022-10-17T08:11:18.672Z,4.95
2022-10-17T08:13:45.842Z,4.03
2022-10-17T08:16:13.808Z,4.88
2022-10-17T08:18:41.691Z,3.80
2022-10-17T08:21:09.772Z,3.33
2022-10-17T08:23:37.440Z,5.90
2022-10-17T08:26:06.173Z,6.82
2022-10-17T08:28:35.342Z,5.97
2022-10-17T08:31:03.912Z,4.60
2022-10-17T08:33:32.130Z,6.85
2022-10-17T08:36:01.402Z,5.45
2022-10-17T08:38:35.094Z,6.68
2022-10-17T08:41:26.007Z,5.72
2022-10-17T08:44:04.825Z,4.60
2022-10-17T08:46:35.416Z,5.10
2022-10-17T08:49:07.573Z,5.50
2022-10-17T08:51:37.912Z,5.10
2022-10-17T08:54:13.408Z,5.50
2022-10-17T08:56:48.598Z,6.47
2022-10-17T08:59:43.313Z,6.82
2022-10-17T09:02:35.747Z,5.82
2022-10-17T09:05:15.306Z,7.85
2022-10-17T09:08:01.476Z,6.90
2022-10-17T09:10:33.763Z,9.95
2022-10-17T09:13:16.345Z,9.38
2022-10-17T09:15:43.623Z,15.43
2022-10-17T09:18:10.763Z,12.35
2022-10-17T09:20:40.524Z,15.88
2022-10-17T09:23:13.005Z,16.80
2022-10-17T09:25:43.040Z,16.60
2022-10-17T09:28:10.322Z,15.50
2022-10-17T09:30:45.213Z,15.02
2022-10-17T09:33:35.353Z,16.85
2022-10-17T09:36:15.081Z,16.42
2022-10-17T09:38:48.191Z,15.48
2022-10-17T09:41:44.820Z,14.55
2022-10-17T09:44:25.659Z,18.48
2022-10-17T09:46:58.180Z,21.60
2022-10-17T09:49:36.646Z,18.20
2022-10-17T09:52:05.328Z,18.90
2022-10-17T09:54:52.781Z,20.05
2022-10-17T09:57:21.731Z,17.95
2022-10-17T10:00:02.603Z,20.98
2022-10-17T10:02:32.559Z,18.13
2022-10-17T10:05:04.186Z,19.40
2022-10-17T10:07:34.207Z,17.77
2022-10-17T10:10:02.952Z,19.63
2022-10-17T10:12:32.411Z,18.67
2022-10-17T10:15:00.120Z,21.75
2022-10-17T10:17:35.132Z,19.80
2022-10-17T10:20:02.879Z,20.38
2022-10-17T10:22:30.387Z,20.48
2022-10-17T10:25:27.916Z,20.13
2022-10-17T10:27:56.372Z,19.27
2022-10-17T10:30:29.363Z,19.38
2022-10-17T10:32:57.728Z,18.77
2022-10-17T10:35:29.863Z,17.73
2022-10-17T10:37:58.257Z,20.65
2022-10-17T10:40:44.559Z,18.50
2022-10-17T10:43:21.063Z,20.80
2022-10-17T10:45:49.098Z,20.13
2022-10-17T10:48:20.435Z,19.38
2022-10-17T10:50:50.345Z,18.50
2022-10-17T10:53:36.373Z,20.98
2022-10-17T10:56:22.216Z,24.80
2022-10-17T10:58:49.482Z,22.58
2022-10-17T11:01:21.068Z,19.73
2022-10-17T11:04:02.492Z,24.13
2022-10-17T11:06:32.180Z,22.75
2022-10-17T11:09:02.262Z,21.20
2022-10-17T11:11:39.215Z,22.77
2022-10-17T11:14:32.769Z,23.63
2022-10-17T11:17:06.609Z,18.48
2022-10-17T11:19:43.981Z,23.00
2022-10-17T11:22:20.278Z,19.15
2022-10-17T11:25:17.735Z,18.95
2022-10-17T11:27:46.211Z,19.33
2022-10-17T11:30:14.673Z,22.27
2022-10-17T11:32:46.911Z,18.65
2022-10-17T11:35:23.450Z,22.38
2022-10-17T11:38:08.757Z,21.63
2022-10-17T11:40:37.089Z,17.88
2022-10-17T11:43:11.636Z,19.92
2022-10-17T11:45:43.900Z,19.17
2022-10-17T11:48:18.582Z,19.33
2022-10-17T11:53:43.959Z,21.90
2022-10-17T11:56:12.164Z,21.15
2022-10-17T11:58:48.617Z,19.10
2022-10-17T12:01:31.277Z,20.88
2022-10-17T12:03:58.573Z,21.60
2022-10-17T12:06:49.527Z,20.33
2022-10-17T12:09:21.154Z,16.85
2022-10-17T12:11:54.679Z,21.10
2022-10-17T12:14:41.669Z,18.27
2022-10-17T12:17:24.302Z,16.90
2022-10-17T12:19:51.657Z,17.65
2022-10-17T12:22:20.238Z,18.17
2022-10-17T12:24:58.279Z,18.40
2022-10-17T12:27:39.639Z,17.23
2022-10-17T12:30:16.695Z,17.58
2022-10-17T12:33:05.753Z,18.83
2022-10-17T12:35:38.085Z,16.88
2022-10-17T12:38:23.385Z,18.27
2022-10-17T12:40:52.213Z,18.17
2022-10-17T12:43:28.372Z,20.20
2022-10-17T12:45:56.877Z,17.45
2022-10-17T12:48:42.070Z,16.92
2022-10-17T12:51:36.306Z,20.08
2022-10-17T12:54:15.657Z,19.73
2022-10-17T12:56:47.399Z,19.90
2022-10-17T12:59:23.005Z,19.13
2022-10-17T13:01:52.185Z,16.58
2022-10-17T13:04:19.961Z,23.13
2022-10-17T13:06:48.346Z,17.65
2022-10-17T13:09:36.318Z,16.40
2022-10-17T13:12:05.352Z,17.42
2022-10-17T13:14:33.887Z,19.45
2022-10-17T13:17:02.854Z,21.38
2022-10-17T13:19:41.905Z,18.67
2022-10-17T13:22:29.203Z,20.95
2022-10-17T13:25:07.855Z,22.52
2022-10-17T13:27:36.076Z,20.90
2022-10-17T13:30:21.629Z,18.98
2022-10-17T13:32:50.639Z,19.90
2022-10-17T13:35:42.031Z,18.05
2022-10-17T13:38:13.304Z,15.98
2022-10-17T13:40:49.739Z,21.92
2022-10-17T13:43:20.226Z,24.50
2022-10-17T13:45:49.526Z,23.33
2022-10-17T13:48:19.468Z,17.80
2022-10-17T13:50:50.080Z,22.55
2022-10-17T13:53:19.396Z,19.52
2022-10-17T13:56:22.974Z,21.13
2022-10-17T13:58:49.840Z,20.80
2022-10-17T14:01:17.600Z,22.40
2022-10-17T14:03:49.033Z,21.38
2022-10-17T14:06:21.746Z,19.50
2022-10-17T14:08:48.944Z,21.90
2022-10-17T14:11:21.022Z,19.00
2022-10-17T14:13:51.841Z,19.55
2022-10-17T14:16:19.914Z,20.83
2022-10-17T14:18:49.259Z,29.15
2022-10-17T14:21:44.290Z,28.83
2022-10-17T14:24:14.212Z,22.13
2022-10-17T14:26:49.265Z,18.95
2022-10-17T14:29:22.688Z,20.50
2022-10-17T14:31:53.485Z,21.80
2022-10-17T14:34:22.638Z,24.70
2022-10-17T14:36:51.921Z,22.05
2022-10-17T14:39:21.477Z,22.08
2022-10-17T14:41:49.170Z,23.35
2022-10-17T14:44:30.625Z,26.73
2022-10-17T14:47:13.434Z,23.55
2022-10-17T14:49:50.659Z,22.35
2022-10-17T14:52:18.804Z,25.73
2022-10-17T14:54:47.803Z,29.27
2022-10-17T14:57:26.286Z,27.00
2022-10-17T14:59:55.381Z,26.58
2022-10-17T15:02:27.414Z,25.35
2022-10-17T15:04:55.005Z,23.73
2022-10-17T15:07:23.657Z,27.38
2022-10-17T15:09:51.603Z,27.63
2022-10-17T15:12:21.852Z,28.23
2022-10-17T15:14:49.420Z,32.13
2022-10-17T15:17:20.500Z,32.83
2022-10-17T15:19:48.431Z,32.55
2022-10-17T15:22:16.132Z,32.92
2022-10-17T15:24:43.499Z,25.92
2022-10-17T15:27:21.802Z,23.92
2022-10-17T15:29:49.408Z,31.23
2022-10-17T15:32:16.680Z,28.00
2022-10-17T15:34:43.957Z,43.42
2022-10-17T15:37:24.458Z,31.15
2022-10-17T15:39:54.099Z,33.15
2022-10-17T15:42:22.645Z,27.40
2022-10-17T15:44:50.191Z,32.15
2022-10-17T15:47:24.643Z,39.83
2022-10-17T15:49:52.449Z,38.22
2022-10-17T15:52:19.675Z,47.80
2022-10-17T15:54:47.006Z,39.72
2022-10-17T15:57:24.847Z,42.47
2022-10-17T15:59:53.184Z,33.33
2022-10-17T16:02:23.754Z,34.53
2022-10-17T16:04:54.079Z,32.25
2022-10-17T16:07:21.741Z,31.50
2022-10-17T16:09:49.028Z,32.55
2022-10-17T16:12:18.018Z,26.90
2022-10-17T16:14:45.657Z,30.00
2022-10-17T16:17:16.895Z,32.47
2022-10-17T16:19:45.111Z,32.05
2022-10-17T16:22:23.720Z,35.65
2022-10-17T16:24:58.121Z,29.73
2022-10-17T16:27:25.623Z,29.05
2022-10-17T16:29:52.832Z,31.60
2022-10-17T16:32:20.108Z,34.95
2022-10-17T16:34:47.316Z,25.92
2022-10-17T16:37:14.493Z,31.30
2022-10-17T16:39:42.544Z,31.67
2022-10-17T16:42:09.767Z,26.90
2022-10-17T16:44:36.970Z,28.20
2022-10-17T16:47:04.243Z,30.30
2022-10-17T16:49:33.752Z,30.75
2022-10-17T16:52:02.199Z,32.95
2022-10-17T16:54:29.626Z,38.15
2022-10-17T16:57:00.184Z,37.28
2022-10-17T16:59:28.076Z,36.67
2022-10-17T17:01:55.342Z,38.83
2022-10-17T17:04:22.635Z,32.58
2022-10-17T17:06:49.898Z,36.38
2022-10-17T17:09:17.279Z,30.48
2022-10-17T17:11:44.555Z,33.80
2022-10-17T17:14:12.647Z,31.67
2022-10-17T17:16:39.838Z,25.17
2022-10-17T17:19:12.704Z,28.83
2022-10-17T17:21:39.954Z,29.88
2022-10-17T17:24:07.183Z,30.45
2022-10-17T17:26:38.929Z,33.25
2022-10-17T17:29:06.188Z,32.83
2022-10-17T17:31:34.646Z,29.50
2022-10-17T17:34:03.513Z,28.88
2022-10-17T17:36:32.710Z,29.67
2022-10-17T17:39:21.697Z,31.90
2022-10-17T17:42:36.593Z,31.92
2022-10-17T17:45:04.430Z,29.55
2022-10-17T17:47:32.026Z,33.00
2022-10-17T17:49:59.447Z,34.15
2022-10-17T17:52:26.860Z,32.35
2022-10-17T17:54:54.384Z,27.08
2022-10-17T17:57:21.649Z,29.65
2022-10-17T17:59:49.761Z,24.52
2022-10-17T18:02:17.073Z,26.75
2022-10-17T18:04:44.351Z,28.77
2022-10-17T18:07:11.539Z,34.20
2022-10-17T18:09:38.800Z,25.85
2022-10-17T18:12:06.154Z,23.63
2022-10-17T18:14:33.347Z,27.95
2022-10-17T18:17:00.535Z,28.52
2022-10-17T18:19:28.208Z,33.22
2022-10-17T18:21:55.432Z,36.20
2022-10-17T18:24:22.708Z,38.90
2022-10-17T18:26:50.990Z,32.10
2022-10-17T18:29:18.248Z,26.95
2022-10-17T18:31:45.515Z,36.78
2022-10-17T18:34:12.785Z,28.48
2022-10-17T18:36:40.044Z,28.90
2022-10-17T18:39:07.306Z,33.35
2022-10-17T18:41:34.987Z,39.15
2022-10-17T18:44:05.326Z,38.30
2022-10-17T18:46:36.175Z,41.20
2022-10-17T18:49:03.739Z,34.57
2022-10-17T18:51:30.996Z,36.90
2022-10-17T18:53:59.408Z,37.45
2022-10-17T18:56:26.869Z,32.92
2022-10-17T18:59:03.530Z,41.20
2022-10-17T19:01:30.791Z,41.72
2022-10-17T19:03:59.089Z,39.03
2022-10-17T19:06:27.702Z,38.53
2022-10-17T19:08:55.180Z,34.45
2022-10-17T19:11:23.728Z,35.55
2022-10-17T19:13:51.249Z,28.80
2022-10-17T19:16:19.924Z,33.50
2022-10-17T19:18:54.320Z,35.03
2022-10-17T19:21:22.367Z,33.67
2022-10-17T19:23:51.200Z,33.28
2022-10-17T19:26:18.493Z,45.22
2022-10-17T19:28:45.875Z,39.10
2022-10-17T19:31:16.892Z,39.13
2022-10-17T19:33:45.384Z,36.28
2022-10-17T19:36:12.992Z,36.10
2022-10-17T19:38:40.518Z,35.78
2022-10-17T19:41:08.731Z,44.58
2022-10-17T19:43:37.308Z,43.78
2022-10-17T19:46:05.438Z,44.58
2022-10-17T19:48:33.738Z,46.08
2022-10-17T19:51:01.348Z,51.53
2022-10-17T19:53:29.334Z,54.75
2022-10-17T19:55:57.558Z,48.33
2022-10-17T21:06:57.493Z,71.68
2022-10-17T21:09:25.031Z,72.43
2022-10-17T21:11:55.131Z,46.45
2022-10-17T21:14:23.429Z,87.45
2022-10-17T21:16:52.256Z,77.60
2022-10-17T21:19:21.787Z,84.57
2022-10-17T21:21:49.067Z,56.92
2022-10-17T21:24:18.001Z,77.38
2022-10-17T21:26:46.207Z,27.05
2022-10-17T21:29:13.908Z,26.52
2022-10-17T21:31:42.636Z,30.83
2022-10-17T21:34:11.040Z,17.83
2022-10-17T21:36:38.987Z,38.53
2022-10-17T21:39:09.200Z,20.90
2022-10-17T21:41:36.429Z,20.02
2022-10-17T21:44:07.983Z,15.98
2022-10-17T21:46:35.619Z,19.20
2022-10-17T21:49:02.868Z,23.33
2022-10-17T21:51:30.318Z,29.48
2022-10-17T21:53:58.149Z,29.98
2022-10-17T21:56:30.583Z,29.00
2022-10-17T21:58:58.249Z,22.35
2022-10-17T22:01:28.808Z,23.83
2022-10-17T22:03:57.541Z,29.08
2022-10-17T22:06:39.637Z,28.42
2022-10-17T22:09:08.165Z,24.13
2022-10-17T22:11:35.995Z,39.72
2022-10-17T22:14:04.968Z,38.28
2022-10-17T22:16:32.752Z,55.20
2022-10-17T22:19:04.851Z,42.10
2022-10-17T22:21:34.098Z,50.85
2022-10-17T22:24:02.663Z,45.53
2022-10-17T22:26:31.079Z,48.83
2022-10-17T22:28:58.616Z,44.72
2022-10-17T22:31:25.943Z,46.45
2022-10-17T22:33:53.183Z,20.92
2022-10-17T22:36:20.685Z,48.15
2022-10-17T22:38:47.859Z,54.55
2022-10-17T22:41:15.092Z,32.70
2022-10-17T22:43:42.316Z,54.15
2022-10-17T22:46:12.808Z,59.47
2022-10-17T22:48:40.366Z,39.50
2022-10-17T22:51:07.800Z,46.10
2022-10-17T22:53:35.891Z,28.63
2022-10-17T22:56:04.887Z,33.30
2022-10-17T22:58:33.880Z,31.73
2022-10-17T23:01:01.400Z,28.92
2022-10-17T23:03:29.666Z,19.38
2022-10-17T23:05:58.493Z,14.85
2022-10-17T23:08:26.231Z,21.55
2022-10-17T23:10:53.511Z,20.20
2022-10-17T23:13:21.834Z,30.85
2022-10-17T23:15:53.037Z,19.98
2022-10-17T23:18:20.672Z,17.33
2022-10-17T23:20:47.956Z,14.35
2022-10-17T23:23:15.323Z,17.15
2022-10-17T23:25:42.785Z,17.90
2022-10-17T23:28:10.333Z,16.45
2022-10-17T23:30:37.947Z,19.83
2022-10-17T23:33:05.506Z,37.00
2022-10-17T23:35:33.134Z,16.38
2022-10-17T23:38:00.358Z,24.65
2022-10-17T23:40:28.080Z,14.80
2022-10-17T23:42:55.346Z,18.13
2022-10-17T23:45:22.840Z,14.98
2022-10-17T23:47:50.069Z,16.75
2022-10-17T23:50:17.385Z,22.90
2022-10-17T23:52:44.594Z,16.90
2022-10-17T23:55:11.839Z,21.55
2022-10-17T23:57:39.321Z,20.42
